sensor_id;sensor_type;location;lat;lon;timestamp;pressure;altitude;pressure_sealevel;temperature;humidity
35655;BME280;21773;50.010;19.972;2023-07-29T00:00:37;98154.94;;;23.34;100.00
35655;BME280;21773;50.010;19.972;2023-07-29T00:03:42;98148.59;;;23.33;100.00
35655;BME280;21773;50.010;19.972;2023-07-29T00:06:45;98149.88;;;23.36;100.00
35655;BME280;21773;50.010;19.972;2023-07-29T00:09:49;98154.47;;;23.41;100.00
35655;BME280;21773;50.010;19.972;2023-07-29T00:12:52;98123.84;;;23.25;100.00
35655;BME280;21773;50.010;19.972;2023-07-29T00:15:55;98148.13;;;23.40;100.00
35655;BME280;21773;50.010;19.972;2023-07-29T00:19:00;98154.75;;;23.39;100.00
35655;BME280;21773;50.010;19.972;2023-07-29T00:22:04;98150.25;;;23.35;100.00
35655;BME280;21773;50.010;19.972;2023-07-29T00:25:08;98150.38;;;23.29;100.00
35655;BME280;21773;50.010;19.972;2023-07-29T00:28:11;98150.88;;;23.23;100.00
35655;BME280;21773;50.010;19.972;2023-07-29T00:31:14;98147.13;;;23.19;100.00
35655;BME280;21773;50.010;19.972;2023-07-29T00:34:19;98147.44;;;23.17;100.00
35655;BME280;21773;50.010;19.972;2023-07-29T00:37:22;98140.97;;;23.13;100.00
35655;BME280;21773;50.010;19.972;2023-07-29T00:40:28;98142.44;;;23.11;100.00
35655;BME280;21773;50.010;19.972;2023-07-29T00:43:31;98140.97;;;23.05;100.00
35655;BME280;21773;50.010;19.972;2023-07-29T00:46:38;98145.97;;;23.03;100.00
35655;BME280;21773;50.010;19.972;2023-07-29T00:49:45;98149.69;;;22.98;100.00
35655;BME280;21773;50.010;19.972;2023-07-29T00:52:49;98147.13;;;23.02;100.00
35655;BME280;21773;50.010;19.972;2023-07-29T00:55:52;98152.13;;;23.00;100.00
35655;BME280;21773;50.010;19.972;2023-07-29T00:58:56;98141.78;;;22.97;100.00
35655;BME280;21773;50.010;19.972;2023-07-29T01:02:04;98117.13;;;22.74;100.00
35655;BME280;21773;50.010;19.972;2023-07-29T01:05:11;98158.91;;;22.94;100.00
35655;BME280;21773;50.010;19.972;2023-07-29T01:08:21;98161.66;;;22.94;100.00
35655;BME280;21773;50.010;19.972;2023-07-29T01:11:35;98158.09;;;22.93;100.00
35655;BME280;21773;50.010;19.972;2023-07-29T01:14:47;98136.06;;;22.76;100.00
35655;BME280;21773;50.010;19.972;2023-07-29T01:17:54;98131.81;;;22.70;100.00
35655;BME280;21773;50.010;19.972;2023-07-29T01:21:04;98155.16;;;22.81;100.00
35655;BME280;21773;50.010;19.972;2023-07-29T01:24:09;98158.88;;;22.76;100.00
35655;BME280;21773;50.010;19.972;2023-07-29T01:27:13;98157.19;;;22.67;100.00
35655;BME280;21773;50.010;19.972;2023-07-29T01:30:17;98126.72;;;22.46;100.00
35655;BME280;21773;50.010;19.972;2023-07-29T01:33:26;98151.00;;;22.61;100.00
35655;BME280;21773;50.010;19.972;2023-07-29T01:36:32;98151.78;;;22.53;100.00
35655;BME280;21773;50.010;19.972;2023-07-29T01:39:38;98163.56;;;22.54;100.00
35655;BME280;21773;50.010;19.972;2023-07-29T01:42:42;98162.28;;;22.51;100.00
35655;BME280;21773;50.010;19.972;2023-07-29T01:45:47;98165.97;;;22.46;100.00
35655;BME280;21773;50.010;19.972;2023-07-29T01:48:51;98164.50;;;22.40;100.00
35655;BME280;21773;50.010;19.972;2023-07-29T01:51:54;98163.22;;;22.38;100.00
35655;BME280;21773;50.010;19.972;2023-07-29T01:54:59;98166.09;;;22.33;100.00
35655;BME280;21773;50.010;19.972;2023-07-29T01:58:02;98163.94;;;22.30;100.00
35655;BME280;21773;50.010;19.972;2023-07-29T02:01:08;98146.63;;;22.21;100.00
35655;BME280;21773;50.010;19.972;2023-07-29T02:04:11;98164.28;;;22.28;100.00
35655;BME280;21773;50.010;19.972;2023-07-29T02:07:15;98156.84;;;22.29;100.00
35655;BME280;21773;50.010;19.972;2023-07-29T02:10:19;98153.78;;;22.30;100.00
35655;BME280;21773;50.010;19.972;2023-07-29T02:13:23;98158.28;;;22.26;100.00
35655;BME280;21773;50.010;19.972;2023-07-29T02:16:26;98129.63;;;22.10;100.00
35655;BME280;21773;50.010;19.972;2023-07-29T02:19:29;98154.91;;;22.29;100.00
35655;BME280;21773;50.010;19.972;2023-07-29T02:22:33;98153.13;;;22.33;100.00
35655;BME280;21773;50.010;19.972;2023-07-29T02:25:37;98155.44;;;22.40;100.00
35655;BME280;21773;50.010;19.972;2023-07-29T02:28:40;98151.56;;;22.41;100.00
35655;BME280;21773;50.010;19.972;2023-07-29T02:31:44;98159.94;;;22.36;100.00
35655;BME280;21773;50.010;19.972;2023-07-29T02:34:48;98160.63;;;22.41;100.00
35655;BME280;21773;50.010;19.972;2023-07-29T02:37:51;98149.47;;;22.38;100.00
35655;BME280;21773;50.010;19.972;2023-07-29T02:40:58;98149.16;;;22.48;100.00
35655;BME280;21773;50.010;19.972;2023-07-29T02:44:01;98161.19;;;22.61;100.00
35655;BME280;21773;50.010;19.972;2023-07-29T02:47:04;98165.44;;;22.67;100.00
35655;BME280;21773;50.010;19.972;2023-07-29T02:50:08;98157.19;;;22.67;100.00
35655;BME280;21773;50.010;19.972;2023-07-29T02:53:11;98165.31;;;22.72;100.00
35655;BME280;21773;50.010;19.972;2023-07-29T02:56:16;98170.66;;;22.77;100.00
35655;BME280;21773;50.010;19.972;2023-07-29T02:59:19;98166.63;;;22.83;100.00
35655;BME280;21773;50.010;19.972;2023-07-29T03:02:23;98149.81;;;22.84;100.00
35655;BME280;21773;50.010;19.972;2023-07-29T03:05:27;98160.53;;;22.95;100.00
35655;BME280;21773;50.010;19.972;2023-07-29T03:08:30;98164.09;;;22.95;100.00
35655;BME280;21773;50.010;19.972;2023-07-29T03:11:35;98161.34;;;22.95;100.00
35655;BME280;21773;50.010;19.972;2023-07-29T03:14:38;98173.47;;;23.03;100.00
35655;BME280;21773;50.010;19.972;2023-07-29T03:17:43;98179.78;;;23.12;100.00
35655;BME280;21773;50.010;19.972;2023-07-29T03:20:48;98185.94;;;23.17;100.00
35655;BME280;21773;50.010;19.972;2023-07-29T03:23:52;98194.19;;;23.17;100.00
35655;BME280;21773;50.010;19.972;2023-07-29T03:26:57;98199.06;;;23.20;100.00
35655;BME280;21773;50.010;19.972;2023-07-29T03:30:00;98199.88;;;23.21;100.00
35655;BME280;21773;50.010;19.972;2023-07-29T03:33:04;98195.34;;;23.16;100.00
35655;BME280;21773;50.010;19.972;2023-07-29T03:36:08;98197.91;;;23.21;100.00
35655;BME280;21773;50.010;19.972;2023-07-29T03:39:11;98205.19;;;23.17;100.00
35655;BME280;21773;50.010;19.972;2023-07-29T03:42:15;98196.28;;;23.12;100.00
35655;BME280;21773;50.010;19.972;2023-07-29T03:45:19;98205.69;;;23.11;100.00
35655;BME280;21773;50.010;19.972;2023-07-29T03:48:22;98203.91;;;23.06;100.00
35655;BME280;21773;50.010;19.972;2023-07-29T03:51:25;98203.53;;;22.99;100.00
35655;BME280;21773;50.010;19.972;2023-07-29T03:54:28;98194.31;;;22.95;100.00
35655;BME280;21773;50.010;19.972;2023-07-29T03:57:33;98201.75;;;22.95;100.00
35655;BME280;21773;50.010;19.972;2023-07-29T04:00:37;98187.31;;;22.80;100.00
35655;BME280;21773;50.010;19.972;2023-07-29T04:03:40;98197.47;;;22.71;100.00
35655;BME280;21773;50.010;19.972;2023-07-29T04:06:44;98203.13;;;22.75;100.00
35655;BME280;21773;50.010;19.972;2023-07-29T04:09:47;98206.53;;;22.72;100.00
35655;BME280;21773;50.010;19.972;2023-07-29T04:12:52;98186.72;;;22.61;100.00
35655;BME280;21773;50.010;19.972;2023-07-29T04:15:55;98208.66;;;22.83;100.00
35655;BME280;21773;50.010;19.972;2023-07-29T04:18:59;98215.94;;;22.88;100.00
35655;BME280;21773;50.010;19.972;2023-07-29T04:22:03;98212.25;;;22.93;100.00
35655;BME280;21773;50.010;19.972;2023-07-29T04:25:06;98207.41;;;22.98;100.00
35655;BME280;21773;50.010;19.972;2023-07-29T04:28:11;98200.16;;;23.02;100.00
35655;BME280;21773;50.010;19.972;2023-07-29T04:31:15;98207.13;;;23.08;100.00
35655;BME280;21773;50.010;19.972;2023-07-29T04:34:19;98154.81;;;22.82;100.00
35655;BME280;21773;50.010;19.972;2023-07-29T04:37:22;98215.44;;;23.25;100.00
35655;BME280;21773;50.010;19.972;2023-07-29T04:40:25;98210.69;;;23.17;100.00
35655;BME280;21773;50.010;19.972;2023-07-29T04:43:31;98209.13;;;23.33;100.00
35655;BME280;21773;50.010;19.972;2023-07-29T04:46:36;98225.50;;;23.47;100.00
35655;BME280;21773;50.010;19.972;2023-07-29T04:49:40;98230.69;;;23.57;100.00
35655;BME280;21773;50.010;19.972;2023-07-29T04:52:43;98230.38;;;23.67;100.00
35655;BME280;21773;50.010;19.972;2023-07-29T04:55:46;98232.66;;;23.83;100.00
35655;BME280;21773;50.010;19.972;2023-07-29T04:58:51;98233.47;;;23.92;100.00
35655;BME280;21773;50.010;19.972;2023-07-29T05:01:55;98232.47;;;24.05;100.00
35655;BME280;21773;50.010;19.972;2023-07-29T05:04:59;98234.63;;;24.16;100.00
35655;BME280;21773;50.010;19.972;2023-07-29T05:08:02;98235.41;;;24.26;100.00
35655;BME280;21773;50.010;19.972;2023-07-29T05:11:06;98240.25;;;24.37;100.00
35655;BME280;21773;50.010;19.972;2023-07-29T05:14:11;98243.75;;;24.64;100.00
35655;BME280;21773;50.010;19.972;2023-07-29T05:17:14;98232.00;;;24.84;100.00
35655;BME280;21773;50.010;19.972;2023-07-29T05:20:17;98247.56;;;24.97;100.00
35655;BME280;21773;50.010;19.972;2023-07-29T05:23:20;98240.19;;;25.10;100.00
35655;BME280;21773;50.010;19.972;2023-07-29T05:26:24;98247.75;;;25.21;100.00
35655;BME280;21773;50.010;19.972;2023-07-29T05:29:28;98231.22;;;25.13;100.00
35655;BME280;21773;50.010;19.972;2023-07-29T05:32:31;98233.38;;;25.36;100.00
35655;BME280;21773;50.010;19.972;2023-07-29T05:35:35;98241.66;;;25.66;100.00
35655;BME280;21773;50.010;19.972;2023-07-29T05:38:38;98229.81;;;25.65;100.00
35655;BME280;21773;50.010;19.972;2023-07-29T05:41:42;98248.13;;;25.91;100.00
35655;BME280;21773;50.010;19.972;2023-07-29T05:44:46;98250.94;;;26.03;100.00
35655;BME280;21773;50.010;19.972;2023-07-29T05:47:49;98248.78;;;26.08;100.00
35655;BME280;21773;50.010;19.972;2023-07-29T05:50:53;98234.38;;;26.03;100.00
35655;BME280;21773;50.010;19.972;2023-07-29T05:53:56;98252.72;;;26.19;100.00
35655;BME280;21773;50.010;19.972;2023-07-29T05:56:59;98254.53;;;26.24;100.00
35655;BME280;21773;50.010;19.972;2023-07-29T06:00:05;98259.38;;;26.27;100.00
35655;BME280;21773;50.010;19.972;2023-07-29T06:03:14;98261.81;;;26.28;100.00
35655;BME280;21773;50.010;19.972;2023-07-29T06:06:18;98268.06;;;26.50;100.00
35655;BME280;21773;50.010;19.972;2023-07-29T06:09:22;98262.25;;;26.63;100.00
35655;BME280;21773;50.010;19.972;2023-07-29T06:12:26;98259.63;;;26.67;100.00
35655;BME280;21773;50.010;19.972;2023-07-29T06:15:30;98272.09;;;26.85;100.00
35655;BME280;21773;50.010;19.972;2023-07-29T06:18:34;98266.72;;;27.01;100.00
35655;BME280;21773;50.010;19.972;2023-07-29T06:21:37;98272.16;;;27.09;100.00
35655;BME280;21773;50.010;19.972;2023-07-29T06:24:40;98266.16;;;27.20;100.00
35655;BME280;21773;50.010;19.972;2023-07-29T06:27:43;98270.31;;;27.38;100.00
35655;BME280;21773;50.010;19.972;2023-07-29T06:30:48;98271.97;;;27.51;100.00
35655;BME280;21773;50.010;19.972;2023-07-29T06:33:51;98266.63;;;27.70;100.00
35655;BME280;21773;50.010;19.972;2023-07-29T06:36:56;98266.72;;;27.74;100.00
35655;BME280;21773;50.010;19.972;2023-07-29T06:39:59;98268.91;;;27.68;100.00
35655;BME280;21773;50.010;19.972;2023-07-29T06:43:03;98263.56;;;27.87;100.00
35655;BME280;21773;50.010;19.972;2023-07-29T06:46:07;98244.84;;;27.96;100.00
35655;BME280;21773;50.010;19.972;2023-07-29T06:49:11;98271.00;;;28.23;100.00
35655;BME280;21773;50.010;19.972;2023-07-29T06:52:14;98278.03;;;28.21;100.00
35655;BME280;21773;50.010;19.972;2023-07-29T06:55:17;98274.09;;;28.34;100.00
35655;BME280;21773;50.010;19.972;2023-07-29T06:58:21;98273.72;;;28.35;100.00
35655;BME280;21773;50.010;19.972;2023-07-29T07:01:25;98279.50;;;28.58;100.00
35655;BME280;21773;50.010;19.972;2023-07-29T07:04:28;98277.53;;;28.87;100.00
35655;BME280;21773;50.010;19.972;2023-07-29T07:07:32;98274.75;;;29.02;100.00
35655;BME280;21773;50.010;19.972;2023-07-29T07:10:35;98278.06;;;29.08;100.00
35655;BME280;21773;50.010;19.972;2023-07-29T07:13:38;98275.81;;;29.29;100.00
35655;BME280;21773;50.010;19.972;2023-07-29T07:16:43;98276.38;;;29.50;100.00
35655;BME280;21773;50.010;19.972;2023-07-29T07:19:46;98272.81;;;29.69;100.00
35655;BME280;21773;50.010;19.972;2023-07-29T07:22:50;98271.91;;;29.81;100.00
35655;BME280;21773;50.010;19.972;2023-07-29T07:25:53;98265.50;;;29.96;100.00
35655;BME280;21773;50.010;19.972;2023-07-29T07:28:56;98264.94;;;30.06;100.00
35655;BME280;21773;50.010;19.972;2023-07-29T07:32:01;98265.91;;;30.13;100.00
35655;BME280;21773;50.010;19.972;2023-07-29T07:35:05;98267.41;;;30.30;100.00
35655;BME280;21773;50.010;19.972;2023-07-29T07:38:09;98264.44;;;30.39;100.00
35655;BME280;21773;50.010;19.972;2023-07-29T07:41:12;98274.75;;;30.38;100.00
35655;BME280;21773;50.010;19.972;2023-07-29T07:44:15;98275.47;;;30.54;100.00
35655;BME280;21773;50.010;19.972;2023-07-29T07:47:22;98236.22;;;30.60;100.00
35655;BME280;21773;50.010;19.972;2023-07-29T07:50:29;98263.06;;;31.13;100.00
35655;BME280;21773;50.010;19.972;2023-07-29T07:53:32;98244.13;;;31.49;100.00
35655;BME280;21773;50.010;19.972;2023-07-29T07:56:35;98247.94;;;31.90;100.00
35655;BME280;21773;50.010;19.972;2023-07-29T07:59:38;98255.81;;;32.10;100.00
35655;BME280;21773;50.010;19.972;2023-07-29T08:02:43;98257.69;;;32.33;100.00
35655;BME280;21773;50.010;19.972;2023-07-29T08:05:47;98253.75;;;32.37;100.00
35655;BME280;21773;50.010;19.972;2023-07-29T08:08:52;98255.91;;;32.17;100.00
35655;BME280;21773;50.010;19.972;2023-07-29T08:11:55;98264.97;;;32.11;100.00
35655;BME280;21773;50.010;19.972;2023-07-29T08:14:58;98261.25;;;32.03;100.00
35655;BME280;21773;50.010;19.972;2023-07-29T08:18:03;98260.59;;;31.83;100.00
35655;BME280;21773;50.010;19.972;2023-07-29T08:21:06;98261.69;;;32.05;100.00
35655;BME280;21773;50.010;19.972;2023-07-29T08:24:09;98255.69;;;32.33;100.00
35655;BME280;21773;50.010;19.972;2023-07-29T08:27:12;98251.50;;;32.50;100.00
35655;BME280;21773;50.010;19.972;2023-07-29T08:30:16;98256.53;;;32.71;100.00
35655;BME280;21773;50.010;19.972;2023-07-29T08:33:22;98255.50;;;32.89;100.00
35655;BME280;21773;50.010;19.972;2023-07-29T08:36:26;98260.13;;;32.71;100.00
35655;BME280;21773;50.010;19.972;2023-07-29T08:39:29;98245.66;;;32.62;100.00
35655;BME280;21773;50.010;19.972;2023-07-29T08:42:33;98249.16;;;32.92;100.00
35655;BME280;21773;50.010;19.972;2023-07-29T08:45:38;98241.41;;;33.16;100.00
35655;BME280;21773;50.010;19.972;2023-07-29T08:48:45;98242.81;;;33.43;100.00
35655;BME280;21773;50.010;19.972;2023-07-29T08:51:49;98237.13;;;33.83;100.00
35655;BME280;21773;50.010;19.972;2023-07-29T08:54:53;98239.41;;;34.40;100.00
35655;BME280;21773;50.010;19.972;2023-07-29T08:57:57;98226.25;;;34.58;100.00
35655;BME280;21773;50.010;19.972;2023-07-29T09:01:00;98229.13;;;34.79;100.00
35655;BME280;21773;50.010;19.972;2023-07-29T09:04:05;98213.94;;;35.19;100.00
35655;BME280;21773;50.010;19.972;2023-07-29T09:07:09;98231.09;;;35.74;100.00
35655;BME280;21773;50.010;19.972;2023-07-29T09:10:13;98224.66;;;35.95;92.31
35655;BME280;21773;50.010;19.972;2023-07-29T09:13:17;98220.31;;;35.76;89.53
35655;BME280;21773;50.010;19.972;2023-07-29T09:16:21;98216.31;;;35.52;87.55
35655;BME280;21773;50.010;19.972;2023-07-29T09:19:26;98201.88;;;35.54;92.48
35655;BME280;21773;50.010;19.972;2023-07-29T09:22:30;98211.53;;;35.42;90.70
35655;BME280;21773;50.010;19.972;2023-07-29T09:25:34;98209.53;;;35.32;91.17
35655;BME280;21773;50.010;19.972;2023-07-29T09:28:38;98213.16;;;35.33;92.49
35655;BME280;21773;50.010;19.972;2023-07-29T09:31:42;98213.94;;;35.47;85.47
35655;BME280;21773;50.010;19.972;2023-07-29T09:34:47;98212.28;;;35.60;91.46
35655;BME280;21773;50.010;19.972;2023-07-29T09:37:50;98205.06;;;35.63;90.06
35655;BME280;21773;50.010;19.972;2023-07-29T09:40:55;98215.09;;;35.53;83.78
35655;BME280;21773;50.010;19.972;2023-07-29T09:44:01;98205.06;;;35.63;81.42
35655;BME280;21773;50.010;19.972;2023-07-29T09:47:05;98203.44;;;35.80;82.48
35655;BME280;21773;50.010;19.972;2023-07-29T09:50:09;98209.88;;;35.80;81.00
35655;BME280;21773;50.010;19.972;2023-07-29T09:53:14;98201.72;;;36.07;81.87
35655;BME280;21773;50.010;19.972;2023-07-29T09:56:18;98196.13;;;36.21;79.51
35655;BME280;21773;50.010;19.972;2023-07-29T09:59:26;98198.41;;;36.37;73.43
35655;BME280;21773;50.010;19.972;2023-07-29T10:02:30;98191.59;;;36.38;76.49
35655;BME280;21773;50.010;19.972;2023-07-29T10:05:35;98188.91;;;36.20;75.61
35655;BME280;21773;50.010;19.972;2023-07-29T10:08:39;98183.53;;;36.43;83.34
35655;BME280;21773;50.010;19.972;2023-07-29T10:11:42;98183.28;;;36.17;75.31
35655;BME280;21773;50.010;19.972;2023-07-29T10:14:47;98176.56;;;35.96;77.37
35655;BME280;21773;50.010;19.972;2023-07-29T10:17:51;98185.47;;;35.67;82.85
35655;BME280;21773;50.010;19.972;2023-07-29T10:20:57;98195.13;;;34.84;86.37
35655;BME280;21773;50.010;19.972;2023-07-29T10:24:03;98190.66;;;34.65;91.71
35655;BME280;21773;50.010;19.972;2023-07-29T10:27:11;98202.13;;;34.18;91.71
35655;BME280;21773;50.010;19.972;2023-07-29T10:30:15;98202.81;;;33.86;96.84
35655;BME280;21773;50.010;19.972;2023-07-29T10:33:19;98200.06;;;33.35;98.66
35655;BME280;21773;50.010;19.972;2023-07-29T10:36:25;98194.66;;;33.09;100.00
35655;BME280;21773;50.010;19.972;2023-07-29T10:39:37;98200.59;;;33.04;100.00
35655;BME280;21773;50.010;19.972;2023-07-29T10:42:59;98194.59;;;33.02;100.00
35655;BME280;21773;50.010;19.972;2023-07-29T10:46:16;98210.72;;;33.19;100.00
35655;BME280;21773;50.010;19.972;2023-07-29T10:49:23;98213.69;;;32.93;100.00
35655;BME280;21773;50.010;19.972;2023-07-29T10:52:40;98203.00;;;33.05;100.00
35655;BME280;21773;50.010;19.972;2023-07-29T10:55:44;98209.56;;;33.24;100.00
35655;BME280;21773;50.010;19.972;2023-07-29T10:58:47;98196.19;;;33.50;100.00
35655;BME280;21773;50.010;19.972;2023-07-29T11:01:53;98191.50;;;33.69;100.00
35655;BME280;21773;50.010;19.972;2023-07-29T11:04:57;98185.69;;;34.09;100.00
35655;BME280;21773;50.010;19.972;2023-07-29T11:08:16;98197.78;;;34.20;100.00
35655;BME280;21773;50.010;19.972;2023-07-29T11:11:19;98178.59;;;34.29;100.00
35655;BME280;21773;50.010;19.972;2023-07-29T11:14:24;98176.56;;;34.19;100.00
35655;BME280;21773;50.010;19.972;2023-07-29T11:17:27;98178.88;;;34.00;100.00
35655;BME280;21773;50.010;19.972;2023-07-29T11:20:33;98170.06;;;33.98;100.00
35655;BME280;21773;50.010;19.972;2023-07-29T11:23:38;98171.88;;;33.62;100.00
35655;BME280;21773;50.010;19.972;2023-07-29T11:26:46;98173.44;;;33.56;100.00
35655;BME280;21773;50.010;19.972;2023-07-29T11:29:50;98166.22;;;33.51;100.00
35655;BME280;21773;50.010;19.972;2023-07-29T11:32:53;98165.34;;;33.36;100.00
35655;BME280;21773;50.010;19.972;2023-07-29T11:35:57;98184.25;;;33.02;100.00
35655;BME280;21773;50.010;19.972;2023-07-29T11:39:09;98142.25;;;32.48;100.00
35655;BME280;21773;50.010;19.972;2023-07-29T11:42:14;98163.44;;;32.52;100.00
35655;BME280;21773;50.010;19.972;2023-07-29T11:45:18;98173.56;;;32.31;100.00
35655;BME280;21773;50.010;19.972;2023-07-29T11:48:30;98178.41;;;32.37;100.00
35655;BME280;21773;50.010;19.972;2023-07-29T11:51:34;98168.09;;;32.78;100.00
35655;BME280;21773;50.010;19.972;2023-07-29T11:54:39;98173.16;;;33.13;100.00
35655;BME280;21773;50.010;19.972;2023-07-29T11:57:43;98163.78;;;32.91;100.00
35655;BME280;21773;50.010;19.972;2023-07-29T12:00:46;98177.06;;;33.05;100.00
35655;BME280;21773;50.010;19.972;2023-07-29T12:03:50;98182.19;;;32.96;100.00
35655;BME280;21773;50.010;19.972;2023-07-29T12:06:54;98175.91;;;33.09;100.00
35655;BME280;21773;50.010;19.972;2023-07-29T12:10:00;98165.78;;;33.42;100.00
35655;BME280;21773;50.010;19.972;2023-07-29T12:13:07;98170.63;;;33.52;100.00
35655;BME280;21773;50.010;19.972;2023-07-29T12:16:16;98156.50;;;34.03;100.00
35655;BME280;21773;50.010;19.972;2023-07-29T12:19:20;98160.66;;;34.52;100.00
35655;BME280;21773;50.010;19.972;2023-07-29T12:22:24;98156.66;;;34.56;100.00
35655;BME280;21773;50.010;19.972;2023-07-29T12:25:28;98158.28;;;34.75;100.00
35655;BME280;21773;50.010;19.972;2023-07-29T12:28:32;98162.31;;;34.92;100.00
35655;BME280;21773;50.010;19.972;2023-07-29T12:31:37;98151.09;;;35.02;100.00
35655;BME280;21773;50.010;19.972;2023-07-29T12:34:41;98146.66;;;35.40;95.19
35655;BME280;21773;50.010;19.972;2023-07-29T12:37:44;98153.47;;;35.43;95.05
35655;BME280;21773;50.010;19.972;2023-07-29T12:40:48;98144.97;;;35.64;98.48
35655;BME280;21773;50.010;19.972;2023-07-29T12:43:52;98140.56;;;35.74;94.95
35655;BME280;21773;50.010;19.972;2023-07-29T12:46:55;98140.09;;;35.96;93.40
35655;BME280;21773;50.010;19.972;2023-07-29T12:49:58;98140.44;;;36.02;92.74
35655;BME280;21773;50.010;19.972;2023-07-29T12:53:02;98132.34;;;36.25;91.45
35655;BME280;21773;50.010;19.972;2023-07-29T12:56:07;98139.09;;;36.35;91.60
35655;BME280;21773;50.010;19.972;2023-07-29T12:59:10;98139.66;;;36.71;91.61
35655;BME280;21773;50.010;19.972;2023-07-29T13:02:13;98121.75;;;36.99;97.09
35655;BME280;21773;50.010;19.972;2023-07-29T13:05:17;98112.50;;;37.02;89.92
35655;BME280;21773;50.010;19.972;2023-07-29T13:08:20;98124.63;;;36.92;88.15
35655;BME280;21773;50.010;19.972;2023-07-29T13:11:26;98131.69;;;36.62;88.61
35655;BME280;21773;50.010;19.972;2023-07-29T13:14:29;98133.44;;;36.38;90.19
35655;BME280;21773;50.010;19.972;2023-07-29T13:17:33;98117.88;;;36.27;89.55
35655;BME280;21773;50.010;19.972;2023-07-29T13:20:37;98109.78;;;36.39;92.17
35655;BME280;21773;50.010;19.972;2023-07-29T13:23:40;98107.47;;;36.24;94.54
35655;BME280;21773;50.010;19.972;2023-07-29T13:26:44;98100.81;;;35.96;92.23
35655;BME280;21773;50.010;19.972;2023-07-29T13:29:48;98082.03;;;35.83;97.68
35655;BME280;21773;50.010;19.972;2023-07-29T13:32:51;98097.09;;;36.21;97.12
35655;BME280;21773;50.010;19.972;2023-07-29T13:35:54;98095.88;;;36.18;90.29
35655;BME280;21773;50.010;19.972;2023-07-29T13:38:57;98097.19;;;35.99;88.48
35655;BME280;21773;50.010;19.972;2023-07-29T13:42:02;98099.38;;;35.49;95.13
35655;BME280;21773;50.010;19.972;2023-07-29T13:45:06;98103.06;;;35.00;93.96
35655;BME280;21773;50.010;19.972;2023-07-29T13:48:10;98099.50;;;34.71;96.91
35655;BME280;21773;50.010;19.972;2023-07-29T13:51:13;98102.16;;;34.11;99.73
35655;BME280;21773;50.010;19.972;2023-07-29T13:54:17;98095.19;;;33.56;100.00
35655;BME280;21773;50.010;19.972;2023-07-29T13:57:21;98102.56;;;33.16;100.00
35655;BME280;21773;50.010;19.972;2023-07-29T14:00:25;98101.13;;;32.85;100.00
35655;BME280;21773;50.010;19.972;2023-07-29T14:03:28;98104.03;;;32.55;100.00
35655;BME280;21773;50.010;19.972;2023-07-29T14:06:32;98109.59;;;32.11;100.00
35655;BME280;21773;50.010;19.972;2023-07-29T14:09:38;98095.78;;;31.89;100.00
35655;BME280;21773;50.010;19.972;2023-07-29T14:12:43;98090.84;;;31.71;100.00
35655;BME280;21773;50.010;19.972;2023-07-29T14:15:47;98100.09;;;31.53;100.00
35655;BME280;21773;50.010;19.972;2023-07-29T14:18:50;98108.91;;;31.25;100.00
35655;BME280;21773;50.010;19.972;2023-07-29T14:21:53;98113.41;;;31.07;100.00
35655;BME280;21773;50.010;19.972;2023-07-29T14:24:56;98118.75;;;30.70;100.00
35655;BME280;21773;50.010;19.972;2023-07-29T14:28:03;98122.25;;;30.21;100.00
35655;BME280;21773;50.010;19.972;2023-07-29T14:31:06;98114.25;;;29.97;100.00
35655;BME280;21773;50.010;19.972;2023-07-29T14:34:10;98110.66;;;29.77;100.00
35655;BME280;21773;50.010;19.972;2023-07-29T14:37:13;98105.41;;;29.53;100.00
35655;BME280;21773;50.010;19.972;2023-07-29T14:40:17;98098.75;;;29.38;100.00
35655;BME280;21773;50.010;19.972;2023-07-29T14:43:22;98101.47;;;29.19;100.00
35655;BME280;21773;50.010;19.972;2023-07-29T14:46:25;98106.97;;;29.15;100.00
35655;BME280;21773;50.010;19.972;2023-07-29T14:49:28;98110.88;;;29.14;100.00
35655;BME280;21773;50.010;19.972;2023-07-29T14:52:32;98113.84;;;29.21;100.00
35655;BME280;21773;50.010;19.972;2023-07-29T14:55:36;98108.63;;;29.36;100.00
35655;BME280;21773;50.010;19.972;2023-07-29T14:58:41;98080.25;;;29.26;100.00
35655;BME280;21773;50.010;19.972;2023-07-29T15:01:44;98092.03;;;29.58;100.00
35655;BME280;21773;50.010;19.972;2023-07-29T15:04:47;98104.69;;;29.75;100.00
35655;BME280;21773;50.010;19.972;2023-07-29T15:07:50;98106.88;;;29.66;100.00
35655;BME280;21773;50.010;19.972;2023-07-29T15:10:54;98102.78;;;29.60;100.00
35655;BME280;21773;50.010;19.972;2023-07-29T15:13:58;98109.00;;;29.53;100.00
35655;BME280;21773;50.010;19.972;2023-07-29T15:17:02;98111.00;;;29.37;100.00
35655;BME280;21773;50.010;19.972;2023-07-29T15:20:06;98105.03;;;29.35;100.00
35655;BME280;21773;50.010;19.972;2023-07-29T15:23:09;98103.94;;;29.05;100.00
35655;BME280;21773;50.010;19.972;2023-07-29T15:26:12;98102.81;;;28.90;100.00
35655;BME280;21773;50.010;19.972;2023-07-29T15:29:17;98103.41;;;28.99;100.00
35655;BME280;21773;50.010;19.972;2023-07-29T15:32:20;98108.31;;;29.06;100.00
35655;BME280;21773;50.010;19.972;2023-07-29T15:35:23;98107.47;;;28.86;100.00
35655;BME280;21773;50.010;19.972;2023-07-29T15:38:27;98112.19;;;28.54;100.00
35655;BME280;21773;50.010;19.972;2023-07-29T15:41:31;98102.56;;;28.48;100.00
35655;BME280;21773;50.010;19.972;2023-07-29T15:44:37;98101.75;;;28.48;100.00
35655;BME280;21773;50.010;19.972;2023-07-29T15:47:40;98108.63;;;28.38;100.00
35655;BME280;21773;50.010;19.972;2023-07-29T15:50:43;98111.91;;;28.12;100.00
35655;BME280;21773;50.010;19.972;2023-07-29T15:53:47;98108.47;;;28.03;100.00